Chester, Connecticut
Current Conditions -  °F | °C
As of 4:15 AM on Sunday 21 Dec 2014 (Local Time) from KSNC Reporting Station
Unknown Precip Unknown Precip  
Wind Chill: 27°   Ceiling: 800
Heat Index: 32°   Visibility: 6mi
Dew Point: 30°   Wind: 5mph
Humidity: 93%   Direction: 340°NNW
Pressure: 30.24"   Gusts: NA
Location:  41.4°N, 72.45°W
Report Text: KSNC 210915Z AUTO 34004KT 6SM UP OVC008 00/M01 A3024 RMK AO2
Loading
Personal Weather Stations






























Interactive Weather Map New forecast layout! Learn more

10-Day Weather Forecast

Advertisements
Track Severe Weather on mobile